Time;durP1;ratioP1;P1;durP2;ratioP2;P2;SDS_P1;SDS_P2;PMS_P1;PMS_P2;Temp;Humidity;BMP_temperature;BMP_pressure;BME280_temperature;BME280_humidity;BME280_pressure;Samples;Min_cycle;Max_cycle;Signal;HPM_P1;HPM_P2
2023/04/08 00:01:02;;;;;;;34.25;18.73;;;11.30;99.90;;;;;;4932096;29;20035;-73
2023/04/08 00:03:28;;;;;;;31.08;16.77;;;11.30;99.90;;;;;;4924118;29;20036;-73
2023/04/08 00:05:53;;;;;;;36.22;18.98;;;11.30;99.90;;;;;;4933116;28;20110;-73
2023/04/08 00:08:19;;;;;;;34.10;17.92;;;11.40;99.90;;;;;;4930420;29;20508;-73
2023/04/08 00:10:45;;;;;;;30.38;18.77;;;11.30;99.90;;;;;;4933493;29;20040;-73
2023/04/08 00:13:10;;;;;;;34.97;18.25;;;11.30;99.90;;;;;;4925125;29;20669;-73
2023/04/08 00:15:36;;;;;;;34.40;18.55;;;11.30;99.90;;;;;;4930322;29;20043;-74
2023/04/08 00:18:02;;;;;;;33.03;19.50;;;11.40;99.90;;;;;;4928766;29;20038;-73
2023/04/08 00:20:28;;;;;;;31.17;19.20;;;11.40;99.90;;;;;;4926289;29;20163;-73
2023/04/08 00:22:54;;;;;;;33.65;17.90;;;11.30;99.90;;;;;;4928494;29;20393;-73
2023/04/08 00:25:19;;;;;;;38.55;19.52;;;11.30;99.90;;;;;;4923340;29;20032;-73
2023/04/08 00:27:45;;;;;;;38.97;18.88;;;11.40;99.90;;;;;;4931493;28;20019;-73
2023/04/08 00:30:11;;;;;;;35.63;18.80;;;11.30;99.90;;;;;;4931373;29;20044;-73
2023/04/08 00:32:36;;;;;;;37.38;19.13;;;11.30;99.90;;;;;;4927737;29;20536;-73
2023/04/08 00:35:03;;;;;;;42.80;19.35;;;11.30;99.90;;;;;;4921496;29;20602;-73
2023/04/08 00:37:30;;;;;;;34.53;19.23;;;11.30;99.90;;;;;;4930082;29;20046;-73
2023/04/08 00:39:56;;;;;;;31.92;18.25;;;11.30;99.90;;;;;;4927668;29;20054;-73
2023/04/08 00:42:21;;;;;;;39.20;19.65;;;11.30;99.90;;;;;;4929411;29;20051;-73
2023/04/08 00:44:47;;;;;;;30.25;18.52;;;11.40;99.90;;;;;;4929546;29;20520;-73
2023/04/08 00:47:14;;;;;;;32.78;20.05;;;11.30;99.90;;;;;;4927371;29;20091;-73
2023/04/08 00:49:40;;;;;;;36.53;20.20;;;11.30;99.90;;;;;;4941603;29;20027;-73
2023/04/08 00:52:06;;;;;;;35.75;20.55;;;11.30;99.90;;;;;;4933671;29;20027;-73
2023/04/08 00:54:32;;;;;;;38.17;20.52;;;11.30;99.90;;;;;;4927844;29;22373;-73
2023/04/08 00:57:00;;;;;;;40.80;20.55;;;11.40;99.90;;;;;;4927605;29;20373;-73
2023/04/08 00:59:31;;;;;;;36.35;20.70;;;11.40;99.90;;;;;;4934856;29;20036;-73
2023/04/08 01:02:24;;;;;;;41.63;20.88;;;11.30;99.90;;;;;;4925253;29;20020;-73
2023/04/08 01:05:04;;;;;;;39.78;20.85;;;11.30;99.90;;;;;;4922499;29;20039;-73
2023/04/08 01:07:34;;;;;;;32.75;19.02;;;11.30;99.90;;;;;;4923826;29;20024;-73
2023/04/08 01:10:14;;;;;;;37.70;20.77;;;11.30;99.90;;;;;;4933123;29;20042;-73
2023/04/08 01:12:47;;;;;;;36.80;22.42;;;11.30;99.90;;;;;;4926062;29;20019;-73
2023/04/08 01:15:13;;;;;;;36.67;19.58;;;11.20;99.90;;;;;;4928747;29;20024;-74
2023/04/08 01:17:40;;;;;;;41.58;21.92;;;11.30;99.90;;;;;;4926140;29;20016;-73
2023/04/08 01:20:07;;;;;;;43.22;20.90;;;11.30;99.90;;;;;;4923364;29;20027;-73
2023/04/08 01:22:43;;;;;;;41.53;21.90;;;11.30;99.90;;;;;;4923128;29;20385;-73
2023/04/08 01:25:18;;;;;;;39.85;21.10;;;11.20;99.90;;;;;;4928535;29;20484;-73
2023/04/08 01:27:46;;;;;;;44.00;22.73;;;11.30;99.90;;;;;;4924232;29;21508;-73
2023/04/08 01:30:13;;;;;;;41.40;22.63;;;11.30;99.90;;;;;;4926376;29;20210;-73
2023/04/08 01:32:42;;;;;;;45.67;21.48;;;11.20;99.90;;;;;;4928837;29;20382;-73
2023/04/08 01:35:09;;;;;;;41.10;22.67;;;11.20;99.90;;;;;;4927011;29;20035;-73
2023/04/08 01:37:35;;;;;;;40.50;21.25;;;11.20;99.90;;;;;;4924507;29;20393;-74
2023/04/08 01:40:02;;;;;;;36.17;20.45;;;11.30;99.90;;;;;;4926047;29;21101;-73
2023/04/08 01:42:29;;;;;;;38.25;23.20;;;11.30;99.90;;;;;;4929789;29;20016;-73
2023/04/08 01:44:57;;;;;;;39.03;24.13;;;11.20;99.90;;;;;;4930748;29;20043;-73
2023/04/08 01:47:24;;;;;;;42.22;22.70;;;11.20;99.90;;;;;;4921561;29;20024;-73
2023/04/08 01:49:51;;;;;;;43.40;23.88;;;11.20;99.90;;;;;;4929373;29;20040;-72
2023/04/08 01:52:19;;;;;;;43.65;24.58;;;11.20;99.90;;;;;;4933506;29;20031;-73
2023/04/08 01:54:45;;;;;;;46.40;23.23;;;11.20;99.90;;;;;;4923132;29;20401;-73
2023/04/08 01:57:16;;;;;;;46.85;23.65;;;11.20;99.90;;;;;;4927500;29;20032;-73
2023/04/08 01:59:42;;;;;;;42.55;24.40;;;11.20;99.90;;;;;;4923044;29;20094;-73
2023/04/08 02:02:09;;;;;;;42.67;23.67;;;11.20;99.90;;;;;;4927036;29;20119;-73
2023/04/08 02:04:35;;;;;;;42.45;23.65;;;11.20;99.90;;;;;;4929213;29;20060;-73
2023/04/08 02:07:01;;;;;;;42.92;24.58;;;11.20;99.90;;;;;;4926142;29;20032;-73
2023/04/08 02:09:27;;;;;;;37.78;24.90;;;11.10;99.90;;;;;;4931570;29;20548;-73
2023/04/08 02:11:53;;;;;;;43.35;24.70;;;11.20;99.90;;;;;;4926243;29;20111;-73
2023/04/08 02:14:19;;;;;;;48.33;27.60;;;11.20;99.90;;;;;;4926019;29;20049;-73
2023/04/08 02:16:50;;;;;;;44.78;24.58;;;11.20;99.90;;;;;;4924971;29;20051;-73
2023/04/08 02:19:41;;;;;;;48.20;25.58;;;11.10;99.90;;;;;;4921466;29;20086;-73
2023/04/08 02:22:24;;;;;;;43.85;24.63;;;11.10;99.90;;;;;;4925484;29;20040;-73
2023/04/08 02:24:51;;;;;;;47.10;25.00;;;11.20;99.90;;;;;;4926947;29;20115;-73
2023/04/08 02:27:18;;;;;;;47.33;25.13;;;11.10;99.90;;;;;;4929407;29;20091;-73
2023/04/08 02:29:46;;;;;;;47.03;24.15;;;11.20;99.90;;;;;;4923281;29;20416;-73
2023/04/08 02:32:12;;;;;;;41.28;23.95;;;11.20;99.90;;;;;;4926716;29;20535;-73
2023/04/08 02:34:40;;;;;;;44.88;24.33;;;11.20;99.90;;;;;;4927750;29;20079;-73
2023/04/08 02:37:07;;;;;;;42.85;25.23;;;11.10;99.90;;;;;;4933194;29;20435;-73
2023/04/08 02:39:33;;;;;;;50.13;25.98;;;11.10;99.90;;;;;;4924258;29;20074;-73
2023/04/08 02:41:59;;;;;;;40.65;24.73;;;11.10;99.90;;;;;;4924370;29;20051;-73
2023/04/08 02:44:24;;;;;;;40.97;24.30;;;11.10;99.90;;;;;;4933982;29;20032;-73
2023/04/08 02:46:50;;;;;;;44.17;24.90;;;11.10;99.90;;;;;;4923385;29;20028;-73
2023/04/08 02:49:16;;;;;;;43.50;25.70;;;11.10;99.90;;;;;;4928932;29;20024;-73
2023/04/08 02:51:41;;;;;;;53.05;26.77;;;11.10;99.90;;;;;;4927912;29;20528;-73
2023/04/08 02:54:07;;;;;;;44.17;26.95;;;11.10;99.90;;;;;;4928198;29;20025;-73
2023/04/08 02:56:33;;;;;;;47.05;26.30;;;11.10;99.90;;;;;;4931984;29;20040;-73
2023/04/08 02:58:58;;;;;;;46.05;27.45;;;11.10;99.90;;;;;;4926070;29;20416;-73
2023/04/08 03:01:24;;;;;;;46.22;27.33;;;11.10;99.90;;;;;;4920905;29;20050;-72
2023/04/08 03:03:50;;;;;;;48.80;26.95;;;11.10;99.90;;;;;;4929462;29;20481;-73
2023/04/08 03:06:15;;;;;;;46.88;24.88;;;11.10;99.90;;;;;;4923258;29;20035;-73
2023/04/08 03:08:41;;;;;;;44.95;26.33;;;11.10;99.90;;;;;;4923917;29;20024;-73
2023/04/08 03:11:07;;;;;;;46.85;23.88;;;11.10;99.90;;;;;;4921077;29;20067;-73
2023/04/08 03:13:33;;;;;;;50.00;25.58;;;11.10;99.90;;;;;;4926192;29;20039;-73
2023/04/08 03:15:58;;;;;;;46.10;25.30;;;11.00;99.90;;;;;;4925522;29;20087;-73
2023/04/08 03:18:24;;;;;;;52.17;27.52;;;11.00;99.90;;;;;;4925082;29;20019;-73
2023/04/08 03:20:50;;;;;;;45.50;26.02;;;11.00;99.90;;;;;;4932786;28;20032;-73
2023/04/08 03:23:16;;;;;;;52.55;26.92;;;11.00;99.90;;;;;;4930930;29;20020;-73
2023/04/08 03:25:41;;;;;;;48.50;27.80;;;11.00;99.90;;;;;;4926843;29;20036;-73
2023/04/08 03:28:07;;;;;;;53.47;28.05;;;11.00;99.90;;;;;;4928485;29;20030;-73
2023/04/08 03:30:33;;;;;;;51.22;28.67;;;11.00;99.90;;;;;;4928684;29;20047;-73
2023/04/08 03:32:59;;;;;;;52.67;28.95;;;11.00;99.90;;;;;;4930431;29;20055;-73
2023/04/08 03:35:24;;;;;;;50.53;27.58;;;11.00;99.90;;;;;;4929949;29;20070;-73
2023/04/08 03:37:50;;;;;;;54.05;26.77;;;11.00;99.90;;;;;;4928369;29;20488;-73
2023/04/08 03:40:16;;;;;;;54.65;28.63;;;11.00;99.90;;;;;;4944087;28;20044;-73
2023/04/08 03:42:41;;;;;;;49.47;27.83;;;11.00;99.90;;;;;;4930737;29;20495;-73
2023/04/08 03:45:07;;;;;;;47.83;28.20;;;11.00;99.90;;;;;;4927154;29;20040;-73
2023/04/08 03:47:33;;;;;;;54.92;29.13;;;11.00;99.90;;;;;;4925308;29;20066;-73
2023/04/08 03:49:59;;;;;;;53.42;27.73;;;11.00;99.90;;;;;;4936837;29;20079;-73
2023/04/08 03:52:25;;;;;;;45.67;28.10;;;11.00;99.90;;;;;;4929975;29;20031;-72
2023/04/08 03:54:50;;;;;;;51.58;29.30;;;11.00;99.90;;;;;;4926804;29;20040;-73
2023/04/08 03:57:16;;;;;;;55.40;29.75;;;11.10;99.90;;;;;;4931867;29;20086;-73
2023/04/08 03:59:42;;;;;;;49.50;27.48;;;11.10;99.90;;;;;;4927474;29;20115;-73
2023/04/08 04:02:07;;;;;;;57.90;29.17;;;11.00;99.90;;;;;;4932041;29;20030;-73
2023/04/08 04:04:35;;;;;;;57.95;28.98;;;11.10;99.90;;;;;;4927716;29;20091;-73
2023/04/08 04:07:01;;;;;;;52.35;27.40;;;11.00;99.90;;;;;;4932363;29;20032;-73
2023/04/08 04:09:26;;;;;;;48.15;27.38;;;11.00;99.90;;;;;;4924213;29;20047;-73
2023/04/08 04:11:52;;;;;;;59.42;30.48;;;11.00;99.90;;;;;;4927859;29;20312;-73
2023/04/08 04:14:18;;;;;;;60.28;29.38;;;11.00;99.90;;;;;;4934238;29;20022;-73
2023/04/08 04:16:43;;;;;;;56.10;29.40;;;11.00;99.90;;;;;;4923959;29;20491;-73
2023/04/08 04:19:09;;;;;;;62.35;32.25;;;11.00;99.90;;;;;;4926625;29;20587;-73
2023/04/08 04:21:34;;;;;;;59.25;32.10;;;11.00;99.90;;;;;;4924221;29;20035;-73
2023/04/08 04:24:00;;;;;;;55.75;31.48;;;11.00;99.90;;;;;;4927986;29;20028;-73
2023/04/08 04:26:26;;;;;;;66.82;32.05;;;11.10;99.90;;;;;;4919494;29;20036;-73
2023/04/08 04:28:51;;;;;;;60.15;33.97;;;11.00;99.90;;;;;;4927842;29;20052;-73
2023/04/08 04:31:22;;;;;;;63.28;32.72;;;11.00;99.90;;;;;;4927254;29;20032;-73
2023/04/08 04:33:48;;;;;;;62.85;30.67;;;10.90;99.90;;;;;;4931699;29;20024;-73
2023/04/08 04:36:14;;;;;;;59.47;31.75;;;11.00;99.90;;;;;;4927673;29;20552;-73
2023/04/08 04:38:41;;;;;;;62.05;32.22;;;10.90;99.90;;;;;;4930158;29;20032;-73
2023/04/08 04:41:07;;;;;;;67.22;32.55;;;10.90;99.90;;;;;;4926413;29;20074;-73
2023/04/08 04:43:33;;;;;;;60.63;31.23;;;10.90;99.90;;;;;;4927236;29;20427;-73
2023/04/08 04:45:59;;;;;;;60.08;33.60;;;10.90;99.90;;;;;;4925976;29;20114;-73
2023/04/08 04:48:25;;;;;;;66.05;33.47;;;10.90;99.90;;;;;;4929382;29;20500;-73
2023/04/08 04:50:58;;;;;;;58.13;32.70;;;10.90;99.90;;;;;;4930034;29;20048;-73
2023/04/08 04:53:24;;;;;;;59.97;32.15;;;11.00;99.90;;;;;;4927662;29;20067;-73
2023/04/08 04:55:50;;;;;;;73.10;32.50;;;10.80;99.90;;;;;;4925439;29;20078;-73
2023/04/08 04:58:16;;;;;;;76.57;36.13;;;10.90;99.90;;;;;;4934581;29;20030;-73
2023/04/08 05:00:42;;;;;;;65.93;34.70;;;10.80;99.90;;;;;;4935962;29;20016;-73
2023/04/08 05:03:08;;;;;;;71.20;35.60;;;10.80;99.90;;;;;;4937225;29;20465;-73
2023/04/08 05:05:33;;;;;;;68.25;35.00;;;10.90;99.90;;;;;;4920897;29;20416;-73
2023/04/08 05:07:59;;;;;;;72.03;35.80;;;10.80;99.90;;;;;;4929546;29;20035;-74
2023/04/08 05:10:25;;;;;;;74.68;34.80;;;10.70;99.90;;;;;;4929859;29;20044;-73
2023/04/08 05:12:51;;;;;;;70.70;32.92;;;10.70;99.90;;;;;;4925934;29;20032;-73
2023/04/08 05:15:16;;;;;;;68.35;36.05;;;10.70;99.90;;;;;;4927470;29;20042;-73
2023/04/08 05:17:42;;;;;;;69.60;35.85;;;10.70;99.90;;;;;;4924397;29;20027;-73
2023/04/08 05:20:08;;;;;;;66.15;33.65;;;10.80;99.90;;;;;;4933059;29;20027;-73
2023/04/08 05:22:34;;;;;;;68.47;34.22;;;10.80;99.90;;;;;;4919090;29;20036;-73
2023/04/08 05:24:59;;;;;;;64.55;32.83;;;10.80;99.90;;;;;;4926244;29;20024;-73
2023/04/08 05:27:26;;;;;;;69.93;32.53;;;10.70;99.90;;;;;;4930361;29;20024;-72
2023/04/08 05:29:51;;;;;;;69.57;32.58;;;10.80;99.90;;;;;;4930705;29;20067;-73
2023/04/08 05:32:17;;;;;;;73.43;33.65;;;10.80;99.90;;;;;;4928108;29;20063;-73
2023/04/08 05:34:43;;;;;;;61.60;33.17;;;10.90;99.90;;;;;;4926186;29;20035;-73
2023/04/08 05:37:09;;;;;;;64.32;34.72;;;11.00;99.90;;;;;;4921065;29;20079;-73
2023/04/08 05:39:35;;;;;;;76.45;36.40;;;11.00;99.90;;;;;;4927543;29;20062;-72
2023/04/08 05:42:01;;;;;;;69.55;35.47;;;11.00;99.90;;;;;;4932362;29;20024;-73
2023/04/08 05:44:26;;;;;;;78.55;36.58;;;11.00;99.90;;;;;;4923723;29;20031;-71
2023/04/08 05:46:52;;;;;;;69.32;36.53;;;11.00;99.90;;;;;;4930318;29;20516;-72
2023/04/08 05:49:18;;;;;;;69.88;34.17;;;11.00;99.90;;;;;;4931630;29;20032;-72
2023/04/08 05:51:43;;;;;;;71.13;36.33;;;11.10;99.90;;;;;;4928988;29;20493;-72
2023/04/08 05:54:09;;;;;;;68.32;35.63;;;11.20;99.90;;;;;;4925585;29;20032;-71
2023/04/08 05:56:35;;;;;;;72.75;35.22;;;11.20;99.90;;;;;;4925132;29;20036;-73
2023/04/08 05:59:00;;;;;;;77.93;35.55;;;11.20;99.90;;;;;;4932398;29;20027;-75
2023/04/08 06:01:26;;;;;;;79.43;39.15;;;11.20;99.90;;;;;;4934483;29;20023;-73
2023/04/08 06:03:54;;;;;;;86.13;39.10;;;11.10;99.90;;;;;;4926365;29;20036;-72
2023/04/08 06:06:20;;;;;;;92.72;39.40;;;11.10;99.90;;;;;;4926222;29;20495;-73
2023/04/08 06:08:46;;;;;;;81.28;38.35;;;11.10;99.90;;;;;;4927104;29;20036;-73
2023/04/08 06:11:11;;;;;;;83.60;40.28;;;11.00;99.90;;;;;;4928192;29;20044;-72
2023/04/08 06:13:37;;;;;;;91.28;39.53;;;11.10;99.90;;;;;;4928409;29;20107;-73
2023/04/08 06:16:11;;;;;;;80.72;39.53;;;11.00;99.90;;;;;;4927695;29;20493;-77
2023/04/08 06:18:37;;;;;;;81.95;37.72;;;10.90;99.90;;;;;;4927162;29;20481;-71
2023/04/08 06:21:02;;;;;;;81.32;36.47;;;11.00;99.90;;;;;;4926570;29;20027;-72
2023/04/08 06:23:28;;;;;;;78.72;35.55;;;11.00;99.90;;;;;;4925670;29;20524;-71
2023/04/08 06:25:54;;;;;;;72.13;34.28;;;10.80;99.90;;;;;;4927445;29;20028;-72
2023/04/08 06:28:19;;;;;;;75.18;34.10;;;10.90;99.90;;;;;;4926521;29;20490;-71
2023/04/08 06:30:45;;;;;;;76.90;34.03;;;10.90;99.90;;;;;;4925922;29;20066;-72
2023/04/08 06:33:11;;;;;;;61.88;30.77;;;11.00;99.90;;;;;;4927518;29;20110;-72
2023/04/08 06:35:36;;;;;;;62.63;30.30;;;11.00;99.90;;;;;;4924519;29;20032;-72
2023/04/08 06:38:02;;;;;;;55.08;27.20;;;11.00;99.90;;;;;;4929942;29;20091;-72
2023/04/08 06:40:28;;;;;;;57.63;28.17;;;11.00;99.90;;;;;;4932205;29;20075;-72
2023/04/08 06:42:54;;;;;;;58.95;29.88;;;10.90;99.90;;;;;;4933330;29;20027;-72
2023/04/08 06:45:20;;;;;;;57.28;27.90;;;11.00;99.90;;;;;;4926743;29;20028;-72
2023/04/08 06:47:45;;;;;;;46.95;25.83;;;11.00;99.90;;;;;;4925032;29;20020;-71
2023/04/08 06:50:11;;;;;;;49.17;25.80;;;11.00;99.90;;;;;;4927739;29;20044;-71
2023/04/08 06:52:37;;;;;;;50.10;25.77;;;11.00;99.90;;;;;;4936103;29;20024;-71
2023/04/08 06:55:03;;;;;;;52.13;25.35;;;10.90;99.90;;;;;;4933628;29;20066;-72
2023/04/08 06:57:28;;;;;;;53.42;25.10;;;10.90;99.90;;;;;;4925542;29;20074;-71
2023/04/08 06:59:54;;;;;;;57.22;26.65;;;10.90;99.90;;;;;;4927051;29;20053;-76
2023/04/08 07:02:21;;;;;;;57.80;27.52;;;10.80;99.90;;;;;;4932598;28;20102;-80
2023/04/08 07:04:47;;;;;;;59.35;28.10;;;10.80;99.90;;;;;;4928437;29;20504;-72
2023/04/08 07:07:13;;;;;;;49.85;26.00;;;10.90;99.90;;;;;;4930383;29;20055;-72
2023/04/08 07:09:42;;;;;;;55.72;26.48;;;11.00;99.90;;;;;;4938915;29;20043;-77
2023/04/08 07:12:07;;;;;;;57.78;26.40;;;10.90;99.90;;;;;;4931895;29;20028;-72
2023/04/08 07:14:33;;;;;;;49.45;25.42;;;11.10;99.90;;;;;;4925495;29;20559;-71
2023/04/08 07:16:59;;;;;;;45.90;22.95;;;11.10;99.90;;;;;;4924932;29;20020;-71
2023/04/08 07:19:25;;;;;;;44.70;22.15;;;11.20;99.90;;;;;;4935265;29;20071;-71
2023/04/08 07:21:51;;;;;;;46.67;23.92;;;11.30;99.90;;;;;;4933661;29;20410;-78
2023/04/08 07:24:17;;;;;;;46.63;22.08;;;11.40;99.90;;;;;;4929595;29;20032;-72
2023/04/08 07:26:43;;;;;;;44.75;21.65;;;11.40;99.90;;;;;;4932668;29;20024;-72
2023/04/08 07:29:09;;;;;;;46.00;22.92;;;11.50;99.90;;;;;;4928757;28;20034;-75
2023/04/08 07:31:34;;;;;;;44.17;21.67;;;11.50;99.90;;;;;;4930854;29;20046;-72
2023/04/08 07:34:00;;;;;;;42.10;22.00;;;11.60;99.90;;;;;;4929344;29;20032;-73
2023/04/08 07:36:27;;;;;;;45.70;22.00;;;11.70;99.90;;;;;;4929490;29;20036;-74
2023/04/08 07:38:52;;;;;;;44.05;22.45;;;11.80;99.90;;;;;;4932784;29;20091;-72
2023/04/08 07:41:18;;;;;;;39.20;20.48;;;11.80;99.90;;;;;;4926935;29;20032;-74
2023/04/08 07:43:44;;;;;;;44.80;22.77;;;11.80;99.90;;;;;;4928457;29;20158;-72
2023/04/08 07:46:10;;;;;;;39.58;20.95;;;11.80;99.90;;;;;;4923944;29;20470;-72
2023/04/08 07:48:36;;;;;;;38.92;20.58;;;11.80;99.90;;;;;;4929499;29;20064;-73
2023/04/08 07:51:06;;;;;;;40.10;21.70;;;11.80;99.90;;;;;;4936397;29;20051;-72
2023/04/08 07:53:33;;;;;;;45.60;23.25;;;11.90;99.90;;;;;;4930449;29;20024;-75
2023/04/08 07:55:59;;;;;;;46.47;23.17;;;11.90;99.90;;;;;;4929857;29;20048;-74
2023/04/08 07:58:25;;;;;;;44.53;21.50;;;11.80;99.90;;;;;;4949100;28;20038;-74
2023/04/08 08:00:51;;;;;;;38.15;20.92;;;11.80;99.90;;;;;;4933246;29;20489;-74
2023/04/08 08:03:16;;;;;;;42.40;22.75;;;11.80;99.90;;;;;;4928814;29;20115;-75
2023/04/08 08:05:42;;;;;;;39.67;21.27;;;11.80;99.90;;;;;;4935560;29;20030;-74
2023/04/08 08:08:10;;;;;;;46.22;23.83;;;11.90;99.90;;;;;;4930689;29;20034;-75
2023/04/08 08:10:37;;;;;;;41.38;21.73;;;11.90;99.90;;;;;;4933281;29;20043;-73
2023/04/08 08:13:03;;;;;;;43.00;20.95;;;11.70;99.90;;;;;;4925236;29;20418;-74
2023/04/08 08:15:29;;;;;;;42.10;22.00;;;11.70;99.90;;;;;;4930306;29;20074;-75
2023/04/08 08:17:54;;;;;;;44.08;23.80;;;11.80;99.90;;;;;;4921788;29;20071;-73
2023/04/08 08:20:20;;;;;;;48.63;24.75;;;11.80;99.90;;;;;;4926387;29;20362;-74
2023/04/08 08:22:45;;;;;;;53.88;24.77;;;11.70;99.90;;;;;;4925813;29;20025;-74
2023/04/08 08:25:12;;;;;;;45.60;25.92;;;11.70;99.90;;;;;;4929360;29;20042;-81
2023/04/08 08:27:40;;;;;;;48.35;24.77;;;11.80;99.90;;;;;;4921223;29;20039;-81
2023/04/08 08:30:06;;;;;;;48.40;24.50;;;11.80;99.90;;;;;;4928847;28;20046;-82
2023/04/08 08:32:32;;;;;;;52.38;25.58;;;11.90;99.90;;;;;;4927083;29;20020;-73
2023/04/08 08:34:57;;;;;;;48.00;24.40;;;11.90;99.90;;;;;;4924793;28;20034;-75
2023/04/08 08:37:23;;;;;;;49.22;24.60;;;11.90;99.90;;;;;;4931179;29;20087;-73
2023/04/08 08:39:48;;;;;;;45.38;23.33;;;12.00;99.90;;;;;;4922970;29;20044;-73
2023/04/08 08:42:22;;;;;;;44.95;23.75;;;12.00;99.90;;;;;;4932084;29;20106;-73
2023/04/08 08:44:48;;;;;;;43.97;22.98;;;12.10;99.90;;;;;;4923633;29;20056;-73
2023/04/08 08:47:15;;;;;;;48.95;23.73;;;12.10;99.90;;;;;;4929337;29;20122;-73
2023/04/08 08:49:41;;;;;;;40.58;21.55;;;12.10;99.90;;;;;;4923745;29;20039;-73
2023/04/08 08:52:06;;;;;;;41.78;22.17;;;12.10;99.90;;;;;;4925663;29;20024;-75
2023/04/08 08:54:32;;;;;;;37.28;20.75;;;12.20;99.90;;;;;;4921633;29;20032;-73
2023/04/08 08:56:58;;;;;;;39.72;21.80;;;12.20;99.90;;;;;;4925474;29;20028;-73
2023/04/08 08:59:24;;;;;;;39.42;21.33;;;12.20;99.90;;;;;;4928934;29;20036;-73
2023/04/08 09:01:50;;;;;;;38.80;21.73;;;12.20;99.90;;;;;;4926327;29;20085;-73
2023/04/08 09:04:21;;;;;;;35.17;20.83;;;12.30;99.90;;;;;;4932028;29;21051;-73
2023/04/08 09:06:49;;;;;;;35.45;19.70;;;12.30;99.90;;;;;;4921223;29;20028;-73
2023/04/08 09:09:16;;;;;;;37.00;22.33;;;12.40;99.90;;;;;;4928962;29;20038;-73
2023/04/08 09:11:43;;;;;;;38.45;19.75;;;12.40;99.90;;;;;;4939765;28;20175;-72
2023/04/08 09:14:23;;;;;;;39.17;19.83;;;12.50;99.90;;;;;;4925391;29;20125;-76
2023/04/08 09:16:50;;;;;;;35.63;20.63;;;12.60;99.90;;;;;;4923534;29;20477;-76
2023/04/08 09:19:16;;;;;;;35.13;19.75;;;12.60;99.90;;;;;;4930225;29;20032;-78
2023/04/08 09:21:42;;;;;;;36.08;19.65;;;12.50;99.90;;;;;;4944064;28;20032;-80
2023/04/08 09:24:09;;;;;;;34.63;19.20;;;12.60;99.90;;;;;;4927193;29;20083;-77
2023/04/08 09:26:40;;;;;;;31.55;18.60;;;12.70;99.90;;;;;;4930846;29;20130;-78
2023/04/08 09:29:09;;;;;;;31.85;18.75;;;12.70;99.90;;;;;;4923731;29;20030;-75
2023/04/08 09:31:40;;;;;;;33.67;18.40;;;12.80;99.90;;;;;;4927057;29;20039;-78
2023/04/08 09:34:18;;;;;;;31.10;19.80;;;12.80;99.90;;;;;;4924492;29;20390;-78
2023/04/08 09:36:44;;;;;;;35.85;19.50;;;12.90;99.90;;;;;;4927586;29;20031;-77
2023/04/08 09:39:10;;;;;;;33.25;19.88;;;13.00;99.90;;;;;;4930706;29;20118;-76
2023/04/08 09:41:37;;;;;;;32.65;20.00;;;13.10;99.90;;;;;;4929880;29;20170;-77
2023/04/08 09:44:06;;;;;;;30.70;19.13;;;13.20;99.90;;;;;;4931559;29;20024;-73
2023/04/08 09:46:39;;;;;;;31.05;20.60;;;13.30;99.90;;;;;;4924983;29;20032;-73
2023/04/08 09:49:06;;;;;;;;;;;13.40;99.90;;;;;;4929975;29;20484;-75
2023/04/08 09:51:39;;;;;;;33.03;20.33;;;13.50;99.90;;;;;;4932853;29;19922;-72
2023/04/08 09:54:12;;;;;;;30.77;20.55;;;13.50;99.90;;;;;;4928348;29;20020;-73
2023/04/08 09:56:48;;;;;;;32.47;20.23;;;13.40;99.90;;;;;;4925603;29;20031;-75
2023/04/08 09:59:16;;;;;;;31.45;18.85;;;13.40;99.90;;;;;;4930241;29;20019;-79
2023/04/08 10:01:53;;;;;;;36.10;19.15;;;13.80;99.90;;;;;;4934054;28;20442;-83
2023/04/08 10:04:21;;;;;;;31.05;19.85;;;14.00;99.90;;;;;;4918009;29;20652;-74
2023/04/08 10:06:56;;;;;;;29.33;17.90;;;13.90;99.90;;;;;;4928916;29;20019;-87
2023/04/08 10:09:23;;;;;;;32.40;20.23;;;14.00;99.90;;;;;;4933073;29;20393;-86
2023/04/08 10:11:50;;;;;;;30.48;21.25;;;14.30;99.90;;;;;;4929885;29;20082;-73
2023/04/08 10:14:16;;;;;;;32.63;20.73;;;14.30;99.90;;;;;;4927296;29;20549;-73
2023/04/08 10:16:41;;;;;;;30.95;20.20;;;14.30;99.90;;;;;;4928659;29;20032;-72
2023/04/08 10:19:40;;;;;;;32.75;21.15;;;14.30;99.90;;;;;;4927993;29;20036;-72
2023/04/08 10:22:28;;;;;;;31.48;20.58;;;14.10;99.90;;;;;;4932402;29;20388;-72
2023/04/08 10:25:15;;;;;;;27.48;20.48;;;14.10;99.90;;;;;;4937119;28;20036;-72
2023/04/08 10:27:42;;;;;;;32.88;21.58;;;14.00;99.90;;;;;;4928243;29;20044;-77
2023/04/08 10:30:26;;;;;;;31.85;20.58;;;14.00;99.90;;;;;;4940799;29;20482;-83
2023/04/08 10:32:55;;;;;;;29.45;21.73;;;14.20;99.90;;;;;;4926728;29;20036;-86
2023/04/08 10:35:35;;;;;;;29.27;20.67;;;14.50;99.90;;;;;;4939006;29;20034;-83
2023/04/08 10:38:03;;;;;;;28.15;20.20;;;14.90;99.90;;;;;;4937607;29;20123;-87
2023/04/08 10:40:35;;;;;;;27.33;18.95;;;15.10;99.90;;;;;;4928046;29;20039;-75
2023/04/08 10:43:00;;;;;;;29.90;20.23;;;14.90;99.90;;;;;;4933730;29;20031;-73
2023/04/08 10:45:26;;;;;;;26.15;18.52;;;14.80;99.90;;;;;;4931146;29;20389;-76
2023/04/08 10:47:52;;;;;;;28.27;18.67;;;15.10;99.90;;;;;;4933164;29;20036;-74
2023/04/08 10:50:20;;;;;;;31.80;19.58;;;15.40;99.90;;;;;;4925935;28;20505;-73
2023/04/08 10:52:53;;;;;;;26.75;18.05;;;15.60;99.90;;;;;;4933956;29;20016;-73
2023/04/08 10:55:23;;;;;;;30.38;18.38;;;15.50;99.90;;;;;;4926707;29;20031;-72
2023/04/08 10:57:50;;;;;;;28.65;22.10;;;15.70;99.90;;;;;;4933860;29;20027;-72
2023/04/08 11:00:31;;;;;;;24.75;19.05;;;15.60;99.90;;;;;;4925959;29;20066;-72
2023/04/08 11:03:01;;;;;;;27.60;19.98;;;15.50;99.90;;;;;;4930150;29;20024;-74
2023/04/08 11:05:27;;;;;;;27.50;19.67;;;15.60;99.90;;;;;;4929781;29;20050;-73
2023/04/08 11:07:54;;;;;;;29.40;20.33;;;15.70;99.90;;;;;;4929053;29;20486;-75
2023/04/08 11:10:20;;;;;;;31.67;21.38;;;16.10;99.90;;;;;;4927362;29;20044;-72
2023/04/08 11:12:46;;;;;;;29.02;20.33;;;16.20;99.90;;;;;;4927437;29;20045;-72
2023/04/08 11:15:12;;;;;;;27.58;20.67;;;16.40;99.90;;;;;;4934529;29;20024;-80
2023/04/08 11:17:38;;;;;;;26.42;19.63;;;16.40;99.90;;;;;;4931912;29;20607;-76
2023/04/08 11:20:05;;;;;;;31.05;22.38;;;16.40;99.90;;;;;;4929399;29;20020;-74
2023/04/08 11:22:33;;;;;;;29.60;21.20;;;16.60;99.90;;;;;;4932357;29;20423;-73
2023/04/08 11:25:00;;;;;;;31.85;23.15;;;16.80;99.90;;;;;;4928921;29;20063;-73
2023/04/08 11:27:26;;;;;;;29.98;21.75;;;16.90;99.90;;;;;;4924340;29;20432;-74
2023/04/08 11:29:55;;;;;;;27.50;20.65;;;17.10;99.90;;;;;;4929920;29;20035;-74
2023/04/08 11:32:22;;;;;;;28.55;21.40;;;17.30;99.90;;;;;;4932077;29;20035;-74
2023/04/08 11:34:48;;;;;;;31.40;22.05;;;17.40;99.90;;;;;;4928967;29;20024;-75
2023/04/08 11:37:15;;;;;;;34.40;23.67;;;17.40;99.90;;;;;;4931903;29;20040;-75
2023/04/08 11:39:44;;;;;;;30.50;22.83;;;17.60;99.90;;;;;;4923853;29;20066;-75
2023/04/08 11:42:31;;;;;;;33.28;23.30;;;17.30;99.90;;;;;;4931303;28;20082;-74
2023/04/08 11:44:57;;;;;;;30.15;22.23;;;16.90;99.90;;;;;;4943369;28;20020;-74
2023/04/08 11:47:33;;;;;;;33.47;26.20;;;16.90;99.90;;;;;;4936627;29;20098;-74
2023/04/08 11:50:00;;;;;;;32.45;25.58;;;17.00;99.90;;;;;;4927064;29;20091;-74
2023/04/08 11:52:46;;;;;;;30.25;23.55;;;17.20;99.90;;;;;;4930975;29;20051;-74
2023/04/08 11:55:21;;;;;;;30.27;23.85;;;17.20;99.90;;;;;;4934830;29;20059;-74
2023/04/08 11:57:47;;;;;;;30.58;22.33;;;17.20;99.90;;;;;;4930629;29;20019;-74
2023/04/08 12:00:13;;;;;;;28.73;20.95;;;17.30;99.90;;;;;;4930864;29;20083;-74
2023/04/08 12:02:39;;;;;;;25.30;19.63;;;17.40;99.90;;;;;;4927847;29;20394;-74
2023/04/08 12:05:05;;;;;;;29.42;20.92;;;17.50;99.90;;;;;;4936062;29;20031;-74
2023/04/08 12:07:31;;;;;;;29.00;21.30;;;17.70;99.90;;;;;;4929013;29;20114;-75
2023/04/08 12:09:57;;;;;;;30.13;22.02;;;17.50;99.90;;;;;;4930772;29;20596;-74
2023/04/08 12:12:23;;;;;;;27.20;20.77;;;17.20;99.90;;;;;;4927250;29;20034;-74
2023/04/08 12:14:48;;;;;;;28.35;21.00;;;16.90;99.90;;;;;;4929767;29;20102;-75
2023/04/08 12:17:15;;;;;;;28.17;22.15;;;16.70;99.90;;;;;;4946561;28;20107;-74
2023/04/08 12:19:40;;;;;;;25.50;20.02;;;16.70;99.90;;;;;;4924316;29;20031;-74
2023/04/08 12:22:06;;;;;;;24.92;17.85;;;16.90;99.90;;;;;;4932312;29;20024;-74
2023/04/08 12:24:32;;;;;;;24.92;19.50;;;17.20;99.90;;;;;;4931681;29;20028;-74
2023/04/08 12:26:57;;;;;;;28.40;21.00;;;17.00;99.90;;;;;;4925956;29;20035;-74
2023/04/08 12:29:23;;;;;;;22.73;16.63;;;17.00;99.90;;;;;;4928472;29;20060;-74